Startpagina
METAR-TAF:

METAR-TAF

Vliegvelden :

Pointe-à-Pitre, Guadeloupe

breedte: 16-16N, lengte: 061-31W, hoogte: 11 m

Actueel weer

Dit bericht is 26 minuten geleden gemaakt, om 16:30 UTC
Wind 15 kt uit het oostzuidoosten
Temperatuur 31°C
Vochtigheid 63%
Druk 1017 hPa
Zicht 10 km of meer
Weinig wolken op 3200 ft

METAR: TFFR 231630Z AUTO 12015KT 9999 FEW032 31/23 Q1017 NOSIG

Tijdstip: 12:56 (16:56 UTC)

Verwachting

Dit bericht is 5 uur en het 56 minuten geleden gemaakt, om 11:00 UTC
Verwachting geldig van 23 om 12 UTC tot 24 om 12 UTC
Wind 12 kt uit het oostzuidoosten
Zicht 10 km of meer
Verspreide wolken op 3500 ft
Wijzigt naar
van 23 om 23 UTC tot 24 om 01 UTC
Wind 3 kt uit variabele richting

TAF: TFFR 231100Z 2312/2412 12012KT 9999 SCT035 BECMG 2323/2401 VRB03KT

Waarnemingen en weersverwachtingen van meer dan 4000 vliegvelden (METAR en TAF).

De beschikbare stations zijn de gele en rode punten op de kaart.

Ga met uw muis naar het station om de naam te zien.

Klik dan om waarnemingen en weersverwachtingen te zien.

kaart wijzigen: klik op de groene knoppen met een zwart kruis om in te zoomen, op de groene knop met een streepje om uit te zoomen of op de groene pijlen voor aangrenzende kaarten.


METAR-TAF: